Terminal Aerodrome Forecast
Issued by NWS

Home | Current Version | Previous Version | Text Only | Print | Product List | Glossary On
Versions: 1 2 3 4 5 6 7 8 9 10 11 12 13 14 15 16 17 18 19 20 21 22 23 24 25
000
FTUS44 KLZK 171800 AAA
TAFHRO
TAF AMD
KHRO 171827Z 1718/1818 13007KT P6SM VCTS SCT015CB
     FM171900 17005KT P6SM VCTS OVC025CB
      TEMPO 1719/1723 02015G25KT 4SM TSRA BR OVC005CB
     FM180000 17005KT P6SM VCSH BKN025
     FM180600 VRB04KT 2SM BR OVC005
     FM181300 10005KT P6SM VCSH OVC025=

USA.gov is the U.S. government's official web portal to all federal, state and local government web resources and services.